sensor_id;sensor_type;location;lat;lon;timestamp;P1;durP1;ratioP1;P2;durP2;ratioP2
31978;SDS011;18502;43.574;1.276;2023-07-30T00:02:05;1.00;;;0.93;;
31978;SDS011;18502;43.574;1.276;2023-07-30T00:04:30;0.70;;;0.70;;
31978;SDS011;18502;43.574;1.276;2023-07-30T00:06:56;1.98;;;0.95;;
31978;SDS011;18502;43.574;1.276;2023-07-30T00:09:22;0.73;;;0.60;;
31978;SDS011;18502;43.574;1.276;2023-07-30T00:11:47;1.15;;;0.60;;
31978;SDS011;18502;43.574;1.276;2023-07-30T00:14:13;3.00;;;0.93;;
31978;SDS011;18502;43.574;1.276;2023-07-30T00:16:39;1.02;;;0.82;;
31978;SDS011;18502;43.574;1.276;2023-07-30T00:19:04;1.48;;;0.90;;
31978;SDS011;18502;43.574;1.276;2023-07-30T00:21:30;2.58;;;0.90;;
31978;SDS011;18502;43.574;1.276;2023-07-30T00:23:55;2.10;;;0.70;;
31978;SDS011;18502;43.574;1.276;2023-07-30T00:26:22;1.00;;;0.90;;
31978;SDS011;18502;43.574;1.276;2023-07-30T00:28:51;1.17;;;0.85;;
31978;SDS011;18502;43.574;1.276;2023-07-30T00:31:16;1.60;;;0.70;;
31978;SDS011;18502;43.574;1.276;2023-07-30T00:33:42;1.48;;;1.10;;
31978;SDS011;18502;43.574;1.276;2023-07-30T00:36:08;2.20;;;0.77;;
31978;SDS011;18502;43.574;1.276;2023-07-30T00:38:33;2.50;;;0.80;;
31978;SDS011;18502;43.574;1.276;2023-07-30T00:40:59;2.88;;;1.33;;
31978;SDS011;18502;43.574;1.276;2023-07-30T00:43:24;3.00;;;1.00;;
31978;SDS011;18502;43.574;1.276;2023-07-30T00:45:50;3.50;;;1.42;;
31978;SDS011;18502;43.574;1.276;2023-07-30T00:48:16;1.88;;;1.10;;
31978;SDS011;18502;43.574;1.276;2023-07-30T00:50:41;1.58;;;1.05;;
31978;SDS011;18502;43.574;1.276;2023-07-30T00:53:08;1.60;;;0.75;;
31978;SDS011;18502;43.574;1.276;2023-07-30T00:55:36;1.65;;;1.10;;
31978;SDS011;18502;43.574;1.276;2023-07-30T00:58:02;1.30;;;1.10;;
31978;SDS011;18502;43.574;1.276;2023-07-30T01:00:28;1.55;;;1.00;;
31978;SDS011;18502;43.574;1.276;2023-07-30T01:02:55;4.00;;;1.50;;
31978;SDS011;18502;43.574;1.276;2023-07-30T01:05:21;3.15;;;1.48;;
31978;SDS011;18502;43.574;1.276;2023-07-30T01:07:46;1.67;;;1.38;;
31978;SDS011;18502;43.574;1.276;2023-07-30T01:10:12;2.25;;;0.93;;
31978;SDS011;18502;43.574;1.276;2023-07-30T01:12:38;2.30;;;0.95;;
31978;SDS011;18502;43.574;1.276;2023-07-30T01:15:05;1.85;;;1.08;;
31978;SDS011;18502;43.574;1.276;2023-07-30T01:17:32;1.80;;;1.23;;
31978;SDS011;18502;43.574;1.276;2023-07-30T01:19:58;2.72;;;1.02;;
31978;SDS011;18502;43.574;1.276;2023-07-30T01:22:24;2.60;;;1.30;;
31978;SDS011;18502;43.574;1.276;2023-07-30T01:24:50;2.25;;;1.23;;
31978;SDS011;18502;43.574;1.276;2023-07-30T01:27:22;2.88;;;1.55;;
31978;SDS011;18502;43.574;1.276;2023-07-30T01:29:55;2.50;;;1.17;;
31978;SDS011;18502;43.574;1.276;2023-07-30T01:32:25;3.42;;;1.17;;
31978;SDS011;18502;43.574;1.276;2023-07-30T01:34:55;2.67;;;1.05;;
31978;SDS011;18502;43.574;1.276;2023-07-30T01:37:22;1.77;;;1.40;;
31978;SDS011;18502;43.574;1.276;2023-07-30T01:39:48;2.38;;;1.27;;
31978;SDS011;18502;43.574;1.276;2023-07-30T01:42:15;3.75;;;1.20;;
31978;SDS011;18502;43.574;1.276;2023-07-30T01:44:41;3.28;;;1.17;;
31978;SDS011;18502;43.574;1.276;2023-07-30T01:47:07;1.70;;;1.13;;
31978;SDS011;18502;43.574;1.276;2023-07-30T01:49:33;2.63;;;1.30;;
31978;SDS011;18502;43.574;1.276;2023-07-30T01:51:59;1.88;;;0.93;;
31978;SDS011;18502;43.574;1.276;2023-07-30T01:54:24;2.80;;;1.50;;
31978;SDS011;18502;43.574;1.276;2023-07-30T01:56:50;1.58;;;1.15;;
31978;SDS011;18502;43.574;1.276;2023-07-30T01:59:16;1.45;;;0.80;;
31978;SDS011;18502;43.574;1.276;2023-07-30T02:01:42;1.45;;;0.82;;
31978;SDS011;18502;43.574;1.276;2023-07-30T02:04:08;3.03;;;1.00;;
31978;SDS011;18502;43.574;1.276;2023-07-30T02:06:34;1.92;;;0.77;;
31978;SDS011;18502;43.574;1.276;2023-07-30T02:08:59;5.80;;;0.90;;
31978;SDS011;18502;43.574;1.276;2023-07-30T02:11:25;2.08;;;0.77;;
31978;SDS011;18502;43.574;1.276;2023-07-30T02:13:51;3.42;;;1.02;;
31978;SDS011;18502;43.574;1.276;2023-07-30T02:16:16;2.83;;;1.08;;
31978;SDS011;18502;43.574;1.276;2023-07-30T02:18:42;1.80;;;0.88;;
31978;SDS011;18502;43.574;1.276;2023-07-30T02:21:08;2.85;;;0.70;;
31978;SDS011;18502;43.574;1.276;2023-07-30T02:23:33;3.15;;;1.20;;
31978;SDS011;18502;43.574;1.276;2023-07-30T02:25:59;2.03;;;0.90;;
31978;SDS011;18502;43.574;1.276;2023-07-30T02:28:25;2.28;;;1.00;;
31978;SDS011;18502;43.574;1.276;2023-07-30T02:30:50;1.95;;;0.98;;
31978;SDS011;18502;43.574;1.276;2023-07-30T02:33:16;1.77;;;1.00;;
31978;SDS011;18502;43.574;1.276;2023-07-30T02:35:43;2.15;;;1.00;;
31978;SDS011;18502;43.574;1.276;2023-07-30T02:38:08;2.00;;;0.90;;
31978;SDS011;18502;43.574;1.276;2023-07-30T02:40:34;3.85;;;0.85;;
31978;SDS011;18502;43.574;1.276;2023-07-30T02:43:00;0.73;;;0.70;;
31978;SDS011;18502;43.574;1.276;2023-07-30T02:45:26;3.53;;;1.15;;
31978;SDS011;18502;43.574;1.276;2023-07-30T02:47:52;2.00;;;0.77;;
31978;SDS011;18502;43.574;1.276;2023-07-30T02:50:17;2.92;;;1.35;;
31978;SDS011;18502;43.574;1.276;2023-07-30T02:52:43;4.00;;;1.10;;
31978;SDS011;18502;43.574;1.276;2023-07-30T02:55:09;2.92;;;0.93;;
31978;SDS011;18502;43.574;1.276;2023-07-30T02:57:34;1.73;;;1.00;;
31978;SDS011;18502;43.574;1.276;2023-07-30T03:00:00;1.13;;;1.00;;
31978;SDS011;18502;43.574;1.276;2023-07-30T03:02:26;3.15;;;1.08;;
31978;SDS011;18502;43.574;1.276;2023-07-30T03:04:51;3.20;;;1.48;;
31978;SDS011;18502;43.574;1.276;2023-07-30T03:07:17;3.25;;;0.90;;
31978;SDS011;18502;43.574;1.276;2023-07-30T03:09:44;4.72;;;1.33;;
31978;SDS011;18502;43.574;1.276;2023-07-30T03:12:10;1.77;;;0.80;;
31978;SDS011;18502;43.574;1.276;2023-07-30T03:14:36;2.33;;;1.08;;
31978;SDS011;18502;43.574;1.276;2023-07-30T03:17:01;8.05;;;1.40;;
31978;SDS011;18502;43.574;1.276;2023-07-30T03:19:27;4.28;;;1.30;;
31978;SDS011;18502;43.574;1.276;2023-07-30T03:21:53;4.32;;;1.15;;
31978;SDS011;18502;43.574;1.276;2023-07-30T03:24:18;2.15;;;1.08;;
31978;SDS011;18502;43.574;1.276;2023-07-30T03:26:44;2.88;;;1.30;;
31978;SDS011;18502;43.574;1.276;2023-07-30T03:29:10;3.05;;;1.25;;
31978;SDS011;18502;43.574;1.276;2023-07-30T03:31:35;4.40;;;1.50;;
31978;SDS011;18502;43.574;1.276;2023-07-30T03:34:01;3.50;;;1.33;;
31978;SDS011;18502;43.574;1.276;2023-07-30T03:36:27;2.28;;;1.52;;
31978;SDS011;18502;43.574;1.276;2023-07-30T03:38:52;1.90;;;1.00;;
31978;SDS011;18502;43.574;1.276;2023-07-30T03:41:18;4.22;;;1.30;;
31978;SDS011;18502;43.574;1.276;2023-07-30T03:43:43;1.88;;;1.23;;
31978;SDS011;18502;43.574;1.276;2023-07-30T03:46:09;3.20;;;1.20;;
31978;SDS011;18502;43.574;1.276;2023-07-30T03:48:35;1.10;;;1.00;;
31978;SDS011;18502;43.574;1.276;2023-07-30T03:51:00;4.13;;;1.30;;
31978;SDS011;18502;43.574;1.276;2023-07-30T03:53:27;1.55;;;1.20;;
31978;SDS011;18502;43.574;1.276;2023-07-30T03:55:53;2.25;;;1.25;;
31978;SDS011;18502;43.574;1.276;2023-07-30T03:58:19;4.70;;;1.27;;
31978;SDS011;18502;43.574;1.276;2023-07-30T04:00:45;2.67;;;1.17;;
31978;SDS011;18502;43.574;1.276;2023-07-30T04:03:10;3.55;;;1.33;;
31978;SDS011;18502;43.574;1.276;2023-07-30T04:05:36;3.47;;;1.30;;
31978;SDS011;18502;43.574;1.276;2023-07-30T04:08:01;5.13;;;1.10;;
31978;SDS011;18502;43.574;1.276;2023-07-30T04:10:27;3.13;;;1.42;;
31978;SDS011;18502;43.574;1.276;2023-07-30T04:12:53;2.90;;;1.20;;
31978;SDS011;18502;43.574;1.276;2023-07-30T04:15:18;2.88;;;1.15;;
31978;SDS011;18502;43.574;1.276;2023-07-30T04:17:44;5.15;;;1.60;;
31978;SDS011;18502;43.574;1.276;2023-07-30T04:20:10;6.65;;;1.58;;
31978;SDS011;18502;43.574;1.276;2023-07-30T04:22:36;2.90;;;1.15;;
31978;SDS011;18502;43.574;1.276;2023-07-30T04:25:02;4.18;;;1.35;;
31978;SDS011;18502;43.574;1.276;2023-07-30T04:27:28;3.78;;;1.27;;
31978;SDS011;18502;43.574;1.276;2023-07-30T04:29:54;5.32;;;2.00;;
31978;SDS011;18502;43.574;1.276;2023-07-30T04:32:19;3.78;;;1.25;;
31978;SDS011;18502;43.574;1.276;2023-07-30T04:34:45;6.20;;;1.30;;
31978;SDS011;18502;43.574;1.276;2023-07-30T04:37:11;3.80;;;1.45;;
31978;SDS011;18502;43.574;1.276;2023-07-30T04:39:36;3.83;;;1.23;;
31978;SDS011;18502;43.574;1.276;2023-07-30T04:42:02;4.88;;;1.48;;
31978;SDS011;18502;43.574;1.276;2023-07-30T04:44:28;4.68;;;1.63;;
31978;SDS011;18502;43.574;1.276;2023-07-30T04:46:54;3.78;;;1.52;;
31978;SDS011;18502;43.574;1.276;2023-07-30T04:49:20;6.57;;;1.70;;
31978;SDS011;18502;43.574;1.276;2023-07-30T04:51:45;5.78;;;1.70;;
31978;SDS011;18502;43.574;1.276;2023-07-30T04:54:11;5.07;;;1.48;;
31978;SDS011;18502;43.574;1.276;2023-07-30T04:56:37;3.45;;;1.40;;
31978;SDS011;18502;43.574;1.276;2023-07-30T04:59:02;5.35;;;1.90;;
31978;SDS011;18502;43.574;1.276;2023-07-30T05:01:28;6.10;;;1.75;;
31978;SDS011;18502;43.574;1.276;2023-07-30T05:03:54;3.95;;;1.38;;
31978;SDS011;18502;43.574;1.276;2023-07-30T05:06:20;3.45;;;1.20;;
31978;SDS011;18502;43.574;1.276;2023-07-30T05:08:46;4.88;;;1.50;;
31978;SDS011;18502;43.574;1.276;2023-07-30T05:11:11;5.50;;;1.70;;
31978;SDS011;18502;43.574;1.276;2023-07-30T05:13:37;4.93;;;1.50;;
31978;SDS011;18502;43.574;1.276;2023-07-30T05:16:03;4.10;;;1.63;;
31978;SDS011;18502;43.574;1.276;2023-07-30T05:18:28;4.30;;;1.65;;
31978;SDS011;18502;43.574;1.276;2023-07-30T05:20:54;2.13;;;1.40;;
31978;SDS011;18502;43.574;1.276;2023-07-30T05:23:20;5.40;;;1.50;;
31978;SDS011;18502;43.574;1.276;2023-07-30T05:25:47;8.48;;;1.73;;
31978;SDS011;18502;43.574;1.276;2023-07-30T05:28:12;8.73;;;1.90;;
31978;SDS011;18502;43.574;1.276;2023-07-30T05:30:38;3.92;;;1.42;;
31978;SDS011;18502;43.574;1.276;2023-07-30T05:33:04;7.03;;;1.67;;
31978;SDS011;18502;43.574;1.276;2023-07-30T05:35:29;10.77;;;1.83;;
31978;SDS011;18502;43.574;1.276;2023-07-30T05:37:55;4.28;;;1.73;;
31978;SDS011;18502;43.574;1.276;2023-07-30T05:40:21;4.28;;;1.85;;
31978;SDS011;18502;43.574;1.276;2023-07-30T05:42:47;4.93;;;1.40;;
31978;SDS011;18502;43.574;1.276;2023-07-30T05:45:13;4.10;;;1.80;;
31978;SDS011;18502;43.574;1.276;2023-07-30T05:47:38;5.95;;;1.42;;
31978;SDS011;18502;43.574;1.276;2023-07-30T05:50:05;8.30;;;1.73;;
31978;SDS011;18502;43.574;1.276;2023-07-30T05:52:31;3.50;;;1.58;;
31978;SDS011;18502;43.574;1.276;2023-07-30T05:54:57;5.40;;;1.60;;
31978;SDS011;18502;43.574;1.276;2023-07-30T05:57:23;7.15;;;1.73;;
31978;SDS011;18502;43.574;1.276;2023-07-30T05:59:48;6.15;;;1.63;;
31978;SDS011;18502;43.574;1.276;2023-07-30T06:02:14;5.20;;;1.80;;
31978;SDS011;18502;43.574;1.276;2023-07-30T06:04:40;6.38;;;1.58;;
31978;SDS011;18502;43.574;1.276;2023-07-30T06:07:06;3.78;;;1.40;;
31978;SDS011;18502;43.574;1.276;2023-07-30T06:09:31;4.90;;;2.30;;
31978;SDS011;18502;43.574;1.276;2023-07-30T06:11:57;3.00;;;1.70;;
31978;SDS011;18502;43.574;1.276;2023-07-30T06:14:24;4.63;;;1.60;;
31978;SDS011;18502;43.574;1.276;2023-07-30T06:16:50;3.28;;;1.70;;
31978;SDS011;18502;43.574;1.276;2023-07-30T06:19:16;9.18;;;1.63;;
31978;SDS011;18502;43.574;1.276;2023-07-30T06:21:42;5.15;;;2.17;;
31978;SDS011;18502;43.574;1.276;2023-07-30T06:24:08;4.63;;;1.95;;
31978;SDS011;18502;43.574;1.276;2023-07-30T06:26:34;6.72;;;1.70;;
31978;SDS011;18502;43.574;1.276;2023-07-30T06:29:00;6.55;;;1.95;;
31978;SDS011;18502;43.574;1.276;2023-07-30T06:31:26;6.80;;;1.85;;
31978;SDS011;18502;43.574;1.276;2023-07-30T06:33:51;7.05;;;1.98;;
31978;SDS011;18502;43.574;1.276;2023-07-30T06:36:17;9.50;;;2.47;;
31978;SDS011;18502;43.574;1.276;2023-07-30T06:38:43;6.45;;;1.60;;
31978;SDS011;18502;43.574;1.276;2023-07-30T06:41:08;6.07;;;2.00;;
31978;SDS011;18502;43.574;1.276;2023-07-30T06:43:34;6.10;;;1.70;;
31978;SDS011;18502;43.574;1.276;2023-07-30T06:46:00;5.20;;;1.50;;
31978;SDS011;18502;43.574;1.276;2023-07-30T06:48:25;3.30;;;2.10;;
31978;SDS011;18502;43.574;1.276;2023-07-30T06:50:51;6.72;;;1.70;;
31978;SDS011;18502;43.574;1.276;2023-07-30T06:53:16;3.65;;;1.60;;
31978;SDS011;18502;43.574;1.276;2023-07-30T06:55:42;6.22;;;1.60;;
31978;SDS011;18502;43.574;1.276;2023-07-30T06:58:08;2.22;;;1.33;;
31978;SDS011;18502;43.574;1.276;2023-07-30T07:00:34;5.03;;;2.35;;
31978;SDS011;18502;43.574;1.276;2023-07-30T07:03:00;5.75;;;1.60;;
31978;SDS011;18502;43.574;1.276;2023-07-30T07:05:26;4.63;;;1.27;;
31978;SDS011;18502;43.574;1.276;2023-07-30T07:07:51;7.70;;;2.00;;
31978;SDS011;18502;43.574;1.276;2023-07-30T07:10:17;5.30;;;1.55;;
31978;SDS011;18502;43.574;1.276;2023-07-30T07:12:43;5.07;;;1.52;;
31978;SDS011;18502;43.574;1.276;2023-07-30T07:15:08;5.13;;;1.38;;
31978;SDS011;18502;43.574;1.276;2023-07-30T07:17:34;5.38;;;1.30;;
31978;SDS011;18502;43.574;1.276;2023-07-30T07:20:00;2.00;;;1.05;;
31978;SDS011;18502;43.574;1.276;2023-07-30T07:22:26;6.25;;;1.52;;
31978;SDS011;18502;43.574;1.276;2023-07-30T07:24:52;2.33;;;1.40;;
31978;SDS011;18502;43.574;1.276;2023-07-30T07:27:18;4.03;;;1.60;;
31978;SDS011;18502;43.574;1.276;2023-07-30T07:29:44;3.38;;;1.00;;
31978;SDS011;18502;43.574;1.276;2023-07-30T07:32:10;5.00;;;1.63;;
31978;SDS011;18502;43.574;1.276;2023-07-30T07:34:36;4.63;;;1.63;;
31978;SDS011;18502;43.574;1.276;2023-07-30T07:37:02;6.90;;;1.85;;
31978;SDS011;18502;43.574;1.276;2023-07-30T07:39:28;3.90;;;1.80;;
31978;SDS011;18502;43.574;1.276;2023-07-30T07:41:54;6.10;;;1.70;;
31978;SDS011;18502;43.574;1.276;2023-07-30T07:44:20;8.80;;;2.05;;
31978;SDS011;18502;43.574;1.276;2023-07-30T07:46:46;7.55;;;2.30;;
31978;SDS011;18502;43.574;1.276;2023-07-30T07:49:12;5.53;;;1.48;;
31978;SDS011;18502;43.574;1.276;2023-07-30T07:51:38;10.10;;;2.10;;
31978;SDS011;18502;43.574;1.276;2023-07-30T07:54:03;6.50;;;1.63;;
31978;SDS011;18502;43.574;1.276;2023-07-30T07:56:30;4.82;;;1.83;;
31978;SDS011;18502;43.574;1.276;2023-07-30T07:58:56;4.68;;;1.58;;
31978;SDS011;18502;43.574;1.276;2023-07-30T08:01:22;8.45;;;1.58;;
31978;SDS011;18502;43.574;1.276;2023-07-30T08:03:47;7.47;;;2.17;;
31978;SDS011;18502;43.574;1.276;2023-07-30T08:06:13;3.22;;;1.23;;
31978;SDS011;18502;43.574;1.276;2023-07-30T08:08:39;7.22;;;2.05;;
31978;SDS011;18502;43.574;1.276;2023-07-30T08:11:05;6.95;;;1.85;;
31978;SDS011;18502;43.574;1.276;2023-07-30T08:13:32;9.95;;;2.35;;
31978;SDS011;18502;43.574;1.276;2023-07-30T08:15:58;8.30;;;1.75;;
31978;SDS011;18502;43.574;1.276;2023-07-30T08:18:23;7.28;;;2.38;;
31978;SDS011;18502;43.574;1.276;2023-07-30T08:20:49;10.05;;;2.28;;
31978;SDS011;18502;43.574;1.276;2023-07-30T08:23:15;6.95;;;2.35;;
31978;SDS011;18502;43.574;1.276;2023-07-30T08:25:41;7.43;;;1.90;;
31978;SDS011;18502;43.574;1.276;2023-07-30T08:28:06;5.18;;;2.15;;
31978;SDS011;18502;43.574;1.276;2023-07-30T08:30:32;9.38;;;1.98;;
31978;SDS011;18502;43.574;1.276;2023-07-30T08:32:58;4.78;;;1.75;;
31978;SDS011;18502;43.574;1.276;2023-07-30T08:35:24;5.38;;;1.48;;
31978;SDS011;18502;43.574;1.276;2023-07-30T08:37:49;7.57;;;1.98;;
31978;SDS011;18502;43.574;1.276;2023-07-30T08:40:15;7.00;;;1.90;;
31978;SDS011;18502;43.574;1.276;2023-07-30T08:42:40;11.43;;;2.13;;
31978;SDS011;18502;43.574;1.276;2023-07-30T08:45:06;5.25;;;2.05;;
31978;SDS011;18502;43.574;1.276;2023-07-30T08:47:35;8.18;;;2.10;;
31978;SDS011;18502;43.574;1.276;2023-07-30T08:50:02;7.55;;;1.73;;
31978;SDS011;18502;43.574;1.276;2023-07-30T08:52:29;4.78;;;1.90;;
31978;SDS011;18502;43.574;1.276;2023-07-30T08:54:56;6.25;;;1.77;;
31978;SDS011;18502;43.574;1.276;2023-07-30T08:57:26;3.90;;;1.83;;
31978;SDS011;18502;43.574;1.276;2023-07-30T08:59:54;6.88;;;1.90;;
31978;SDS011;18502;43.574;1.276;2023-07-30T09:02:30;7.68;;;2.08;;
31978;SDS011;18502;43.574;1.276;2023-07-30T09:05:00;9.52;;;2.03;;
31978;SDS011;18502;43.574;1.276;2023-07-30T09:07:27;5.93;;;1.88;;
31978;SDS011;18502;43.574;1.276;2023-07-30T09:09:52;5.05;;;1.75;;
31978;SDS011;18502;43.574;1.276;2023-07-30T09:12:18;5.88;;;1.90;;
31978;SDS011;18502;43.574;1.276;2023-07-30T09:14:46;7.25;;;1.60;;
31978;SDS011;18502;43.574;1.276;2023-07-30T09:17:16;6.05;;;1.85;;
31978;SDS011;18502;43.574;1.276;2023-07-30T09:19:43;7.40;;;2.03;;
31978;SDS011;18502;43.574;1.276;2023-07-30T09:22:08;6.53;;;1.90;;
31978;SDS011;18502;43.574;1.276;2023-07-30T09:24:34;4.65;;;1.42;;
31978;SDS011;18502;43.574;1.276;2023-07-30T09:27:03;8.50;;;2.22;;
31978;SDS011;18502;43.574;1.276;2023-07-30T09:29:29;5.20;;;1.83;;
31978;SDS011;18502;43.574;1.276;2023-07-30T09:31:54;5.47;;;1.98;;
31978;SDS011;18502;43.574;1.276;2023-07-30T09:34:21;5.78;;;2.17;;
31978;SDS011;18502;43.574;1.276;2023-07-30T09:36:52;3.90;;;1.65;;
31978;SDS011;18502;43.574;1.276;2023-07-30T09:39:21;5.88;;;1.65;;
31978;SDS011;18502;43.574;1.276;2023-07-30T09:41:49;5.93;;;2.10;;
31978;SDS011;18502;43.574;1.276;2023-07-30T09:44:17;5.45;;;1.60;;
31978;SDS011;18502;43.574;1.276;2023-07-30T09:46:44;4.85;;;2.05;;
31978;SDS011;18502;43.574;1.276;2023-07-30T09:49:11;4.90;;;1.65;;
31978;SDS011;18502;43.574;1.276;2023-07-30T09:51:38;8.77;;;2.45;;
31978;SDS011;18502;43.574;1.276;2023-07-30T09:54:07;6.15;;;1.85;;
31978;SDS011;18502;43.574;1.276;2023-07-30T09:56:38;6.70;;;1.60;;
31978;SDS011;18502;43.574;1.276;2023-07-30T09:59:05;5.13;;;1.38;;
31978;SDS011;18502;43.574;1.276;2023-07-30T10:01:32;7.80;;;2.35;;
31978;SDS011;18502;43.574;1.276;2023-07-30T10:04:11;10.00;;;2.10;;
31978;SDS011;18502;43.574;1.276;2023-07-30T10:06:38;5.75;;;2.00;;
31978;SDS011;18502;43.574;1.276;2023-07-30T10:09:14;3.67;;;1.60;;
31978;SDS011;18502;43.574;1.276;2023-07-30T10:11:42;7.50;;;1.83;;
31978;SDS011;18502;43.574;1.276;2023-07-30T10:14:09;3.97;;;1.75;;
31978;SDS011;18502;43.574;1.276;2023-07-30T10:16:36;8.38;;;1.80;;
31978;SDS011;18502;43.574;1.276;2023-07-30T10:19:02;8.38;;;2.00;;
31978;SDS011;18502;43.574;1.276;2023-07-30T10:21:28;4.38;;;1.52;;
31978;SDS011;18502;43.574;1.276;2023-07-30T10:24:03;5.97;;;1.70;;
31978;SDS011;18502;43.574;1.276;2023-07-30T10:26:33;6.43;;;1.70;;
31978;SDS011;18502;43.574;1.276;2023-07-30T10:31:43;5.05;;;1.60;;
31978;SDS011;18502;43.574;1.276;2023-07-30T10:34:13;4.82;;;1.83;;
31978;SDS011;18502;43.574;1.276;2023-07-30T10:36:43;5.97;;;1.60;;
31978;SDS011;18502;43.574;1.276;2023-07-30T10:39:12;7.25;;;1.88;;
31978;SDS011;18502;43.574;1.276;2023-07-30T10:41:45;3.55;;;1.50;;
31978;SDS011;18502;43.574;1.276;2023-07-30T10:44:21;5.43;;;1.80;;
31978;SDS011;18502;43.574;1.276;2023-07-30T10:46:49;2.85;;;1.38;;
31978;SDS011;18502;43.574;1.276;2023-07-30T10:49:15;4.35;;;1.58;;
31978;SDS011;18502;43.574;1.276;2023-07-30T10:51:41;3.25;;;1.52;;
31978;SDS011;18502;43.574;1.276;2023-07-30T10:54:07;3.58;;;1.35;;
31978;SDS011;18502;43.574;1.276;2023-07-30T10:56:34;4.05;;;1.30;;
31978;SDS011;18502;43.574;1.276;2023-07-30T10:59:02;5.15;;;2.45;;
31978;SDS011;18502;43.574;1.276;2023-07-30T11:01:30;4.47;;;2.30;;
31978;SDS011;18502;43.574;1.276;2023-07-30T11:03:55;5.43;;;1.95;;
31978;SDS011;18502;43.574;1.276;2023-07-30T11:06:25;9.02;;;4.65;;
31978;SDS011;18502;43.574;1.276;2023-07-30T11:08:52;5.38;;;1.80;;
31978;SDS011;18502;43.574;1.276;2023-07-30T11:11:18;6.18;;;1.60;;
31978;SDS011;18502;43.574;1.276;2023-07-30T11:13:44;4.88;;;1.38;;
31978;SDS011;18502;43.574;1.276;2023-07-30T11:16:14;2.83;;;1.35;;
31978;SDS011;18502;43.574;1.276;2023-07-30T11:18:41;2.75;;;1.20;;
31978;SDS011;18502;43.574;1.276;2023-07-30T11:21:13;5.60;;;1.50;;
31978;SDS011;18502;43.574;1.276;2023-07-30T11:23:41;5.68;;;1.20;;
31978;SDS011;18502;43.574;1.276;2023-07-30T11:26:09;4.13;;;1.38;;
31978;SDS011;18502;43.574;1.276;2023-07-30T11:28:42;5.82;;;1.50;;
31978;SDS011;18502;43.574;1.276;2023-07-30T11:31:09;5.07;;;1.63;;
31978;SDS011;18502;43.574;1.276;2023-07-30T11:33:43;2.20;;;1.10;;
31978;SDS011;18502;43.574;1.276;2023-07-30T11:36:14;6.53;;;1.67;;
31978;SDS011;18502;43.574;1.276;2023-07-30T11:38:41;2.58;;;1.10;;
31978;SDS011;18502;43.574;1.276;2023-07-30T11:41:07;5.18;;;1.75;;
31978;SDS011;18502;43.574;1.276;2023-07-30T11:43:38;5.50;;;1.27;;
31978;SDS011;18502;43.574;1.276;2023-07-30T11:46:09;6.45;;;1.65;;
31978;SDS011;18502;43.574;1.276;2023-07-30T11:48:43;3.63;;;1.05;;
31978;SDS011;18502;43.574;1.276;2023-07-30T11:51:23;3.63;;;1.40;;
31978;SDS011;18502;43.574;1.276;2023-07-30T11:53:57;4.30;;;1.40;;
31978;SDS011;18502;43.574;1.276;2023-07-30T11:56:33;3.80;;;1.45;;
31978;SDS011;18502;43.574;1.276;2023-07-30T11:59:00;3.53;;;1.17;;
31978;SDS011;18502;43.574;1.276;2023-07-30T12:01:29;5.35;;;1.50;;
31978;SDS011;18502;43.574;1.276;2023-07-30T12:03:57;4.65;;;1.30;;
31978;SDS011;18502;43.574;1.276;2023-07-30T12:06:24;5.60;;;1.92;;
31978;SDS011;18502;43.574;1.276;2023-07-30T12:09:18;4.13;;;1.40;;
31978;SDS011;18502;43.574;1.276;2023-07-30T12:11:54;7.90;;;1.50;;
31978;SDS011;18502;43.574;1.276;2023-07-30T12:14:24;6.47;;;1.63;;
31978;SDS011;18502;43.574;1.276;2023-07-30T12:16:55;3.35;;;1.38;;
31978;SDS011;18502;43.574;1.276;2023-07-30T12:19:27;3.08;;;1.25;;
31978;SDS011;18502;43.574;1.276;2023-07-30T12:21:53;5.93;;;1.80;;
31978;SDS011;18502;43.574;1.276;2023-07-30T12:24:19;5.13;;;1.85;;
31978;SDS011;18502;43.574;1.276;2023-07-30T12:26:45;2.28;;;1.20;;
31978;SDS011;18502;43.574;1.276;2023-07-30T12:29:10;3.88;;;1.38;;
31978;SDS011;18502;43.574;1.276;2023-07-30T12:31:36;6.13;;;1.95;;
31978;SDS011;18502;43.574;1.276;2023-07-30T12:34:01;2.00;;;1.10;;
31978;SDS011;18502;43.574;1.276;2023-07-30T12:36:28;6.88;;;1.50;;
31978;SDS011;18502;43.574;1.276;2023-07-30T12:38:53;3.17;;;1.25;;
31978;SDS011;18502;43.574;1.276;2023-07-30T12:41:19;2.00;;;1.23;;
31978;SDS011;18502;43.574;1.276;2023-07-30T12:43:51;2.55;;;1.02;;
31978;SDS011;18502;43.574;1.276;2023-07-30T12:46:18;4.75;;;1.42;;
31978;SDS011;18502;43.574;1.276;2023-07-30T12:48:44;5.15;;;1.45;;
31978;SDS011;18502;43.574;1.276;2023-07-30T12:51:09;3.83;;;1.35;;
31978;SDS011;18502;43.574;1.276;2023-07-30T12:53:35;4.15;;;1.15;;
31978;SDS011;18502;43.574;1.276;2023-07-30T12:56:01;6.82;;;1.50;;
31978;SDS011;18502;43.574;1.276;2023-07-30T12:58:26;4.45;;;1.67;;
31978;SDS011;18502;43.574;1.276;2023-07-30T13:00:52;20.63;;;2.83;;
31978;SDS011;18502;43.574;1.276;2023-07-30T13:03:18;86.88;;;7.63;;
31978;SDS011;18502;43.574;1.276;2023-07-30T13:05:43;101.45;;;8.32;;
31978;SDS011;18502;43.574;1.276;2023-07-30T13:08:09;12.25;;;2.38;;
31978;SDS011;18502;43.574;1.276;2023-07-30T13:10:35;7.05;;;1.50;;
31978;SDS011;18502;43.574;1.276;2023-07-30T13:13:00;2.28;;;0.93;;
31978;SDS011;18502;43.574;1.276;2023-07-30T13:15:26;2.92;;;0.90;;
31978;SDS011;18502;43.574;1.276;2023-07-30T13:17:53;3.55;;;1.77;;
31978;SDS011;18502;43.574;1.276;2023-07-30T13:20:19;3.72;;;1.70;;
31978;SDS011;18502;43.574;1.276;2023-07-30T13:22:44;3.80;;;1.20;;
31978;SDS011;18502;43.574;1.276;2023-07-30T13:25:10;4.05;;;1.40;;
31978;SDS011;18502;43.574;1.276;2023-07-30T13:27:35;5.38;;;1.90;;
31978;SDS011;18502;43.574;1.276;2023-07-30T13:30:01;4.43;;;1.58;;
31978;SDS011;18502;43.574;1.276;2023-07-30T13:32:27;2.63;;;1.20;;
31978;SDS011;18502;43.574;1.276;2023-07-30T13:34:52;3.53;;;1.38;;
31978;SDS011;18502;43.574;1.276;2023-07-30T13:37:18;3.17;;;1.45;;
31978;SDS011;18502;43.574;1.276;2023-07-30T13:39:44;2.40;;;1.27;;
31978;SDS011;18502;43.574;1.276;2023-07-30T13:42:09;2.58;;;1.20;;
31978;SDS011;18502;43.574;1.276;2023-07-30T13:44:35;3.92;;;1.30;;
31978;SDS011;18502;43.574;1.276;2023-07-30T13:47:01;2.78;;;1.33;;
31978;SDS011;18502;43.574;1.276;2023-07-30T13:49:27;1.98;;;1.10;;
31978;SDS011;18502;43.574;1.276;2023-07-30T13:51:52;3.63;;;1.35;;
31978;SDS011;18502;43.574;1.276;2023-07-30T13:54:18;3.78;;;1.70;;
31978;SDS011;18502;43.574;1.276;2023-07-30T13:56:43;2.50;;;1.20;;
31978;SDS011;18502;43.574;1.276;2023-07-30T13:59:09;2.92;;;1.20;;
31978;SDS011;18502;43.574;1.276;2023-07-30T14:01:35;2.58;;;1.67;;
31978;SDS011;18502;43.574;1.276;2023-07-30T14:04:00;2.95;;;1.55;;
31978;SDS011;18502;43.574;1.276;2023-07-30T14:06:26;4.60;;;1.92;;
31978;SDS011;18502;43.574;1.276;2023-07-30T14:08:53;8.93;;;1.42;;
31978;SDS011;18502;43.574;1.276;2023-07-30T14:11:19;4.00;;;1.50;;
31978;SDS011;18502;43.574;1.276;2023-07-30T14:13:45;3.70;;;1.58;;
31978;SDS011;18502;43.574;1.276;2023-07-30T14:16:11;5.18;;;1.85;;
31978;SDS011;18502;43.574;1.276;2023-07-30T14:18:36;13.15;;;1.70;;
31978;SDS011;18502;43.574;1.276;2023-07-30T14:21:04;5.90;;;1.52;;
31978;SDS011;18502;43.574;1.276;2023-07-30T14:23:30;3.25;;;1.20;;
31978;SDS011;18502;43.574;1.276;2023-07-30T14:25:55;2.10;;;1.90;;
31978;SDS011;18502;43.574;1.276;2023-07-30T14:28:21;5.60;;;2.05;;
31978;SDS011;18502;43.574;1.276;2023-07-30T14:30:46;6.55;;;3.00;;
31978;SDS011;18502;43.574;1.276;2023-07-30T14:33:12;3.05;;;1.80;;
31978;SDS011;18502;43.574;1.276;2023-07-30T14:35:39;4.97;;;2.30;;
31978;SDS011;18502;43.574;1.276;2023-07-30T14:38:05;5.70;;;2.60;;
31978;SDS011;18502;43.574;1.276;2023-07-30T14:40:31;6.38;;;2.17;;
31978;SDS011;18502;43.574;1.276;2023-07-30T14:42:57;4.30;;;2.15;;
31978;SDS011;18502;43.574;1.276;2023-07-30T14:45:23;2.70;;;1.50;;
31978;SDS011;18502;43.574;1.276;2023-07-30T14:47:49;2.58;;;1.75;;